Time;durP1;ratioP1;P1;durP2;ratioP2;P2;SDS_P1;SDS_P2;PMS_P1;PMS_P2;Temp;Humidity;BMP_temperature;BMP_pressure;BME280_temperature;BME280_humidity;BME280_pressure;Samples;Min_cycle;Max_cycle;Signal;HPM_P1;HPM_P2
2021/12/22 00:02:24;;;;;;;;;;;21.30;48.80;;;;;;5040109;28;19917;-69
2021/12/22 00:04:50;;;;;;;;;;;21.30;48.90;;;;;;5043417;28;19916;-63
2021/12/22 00:07:16;;;;;;;;;;;21.20;48.80;;;;;;5037528;28;19927;-64
2021/12/22 00:09:42;;;;;;;;;;;21.20;48.80;;;;;;5043490;28;20319;-64
2021/12/22 00:12:08;;;;;;;;;;;21.20;48.80;;;;;;5044806;28;19908;-64
2021/12/22 00:14:34;;;;;;;;;;;21.20;48.80;;;;;;5042904;28;19924;-64
2021/12/22 00:16:59;;;;;;;;;;;21.20;48.80;;;;;;5046145;28;20340;-64
2021/12/22 00:19:24;;;;;;;;;;;21.20;48.80;;;;;;5045123;28;19913;-67
2021/12/22 00:21:50;;;;;;;;;;;21.20;48.80;;;;;;5046014;28;19929;-64
2021/12/22 00:24:15;;;;;;;;;;;21.10;48.80;;;;;;5043946;28;20004;-62
2021/12/22 00:26:41;;;;;;;;;;;21.10;48.80;;;;;;5047269;28;20058;-64
2021/12/22 00:29:08;;;;;;;;;;;21.10;48.80;;;;;;5044363;28;20043;-63
2021/12/22 00:31:41;;;;;;;;;;;21.10;48.80;;;;;;5045040;28;19936;-68
2021/12/22 00:34:15;;;;;;;;;;;21.10;48.80;;;;;;5039688;28;20393;-63
2021/12/22 00:36:40;;;;;;;;;;;21.10;48.90;;;;;;5037331;28;20016;-68
2021/12/22 00:39:06;;;;;;;;;;;21.00;48.90;;;;;;5041721;28;20035;-63
2021/12/22 00:41:31;;;;;;;;;;;21.00;48.90;;;;;;5041518;28;20025;-63
2021/12/22 00:43:57;;;;;;;;;;;21.00;48.90;;;;;;5045059;28;19924;-68
2021/12/22 00:46:22;;;;;;;;;;;21.00;48.90;;;;;;5041535;28;19933;-68
2021/12/22 00:48:48;;;;;;;;;;;21.00;48.90;;;;;;5038793;28;20000;-63
2021/12/22 00:51:13;;;;;;;;;;;21.00;48.90;;;;;;5040715;28;20301;-64
2021/12/22 00:53:39;;;;;;;;;;;21.00;48.90;;;;;;5044644;28;19928;-68
2021/12/22 00:56:06;;;;;;;;;;;21.00;48.90;;;;;;5044742;28;20012;-64
2021/12/22 00:58:32;;;;;;;;;;;21.00;48.90;;;;;;5043653;28;20000;-69
2021/12/22 01:01:01;;;;;;;;;;;20.90;48.80;;;;;;5043896;28;20486;-68
2021/12/22 01:03:27;;;;;;;;;;;20.90;48.90;;;;;;5043297;28;20391;-69
2021/12/22 01:05:53;;;;;;;;;;;20.90;48.80;;;;;;5038108;28;20095;-63
2021/12/22 01:08:18;;;;;;;;;;;20.90;48.80;;;;;;5038905;28;20355;-65
2021/12/22 01:10:44;;;;;;;;;;;20.90;48.90;;;;;;5042395;28;19947;-63
2021/12/22 01:13:10;;;;;;;;;;;20.90;48.90;;;;;;5042668;28;19908;-65
2021/12/22 01:15:36;;;;;;;;;;;20.90;48.90;;;;;;5042944;28;19936;-63
2021/12/22 01:18:10;;;;;;;;;;;20.80;48.90;;;;;;5042228;28;19904;-63
2021/12/22 01:20:51;;;;;;;;;;;20.80;48.90;;;;;;5040880;28;19913;-66
2021/12/22 01:23:19;;;;;;;;;;;20.80;48.90;;;;;;5039824;28;19908;-65
2021/12/22 01:25:45;;;;;;;;;;;20.80;48.90;;;;;;5038183;28;19912;-68
2021/12/22 01:28:11;;;;;;;;;;;20.80;49.00;;;;;;5045168;28;19909;-64
2021/12/22 01:30:42;;;;;;;;;;;20.80;48.90;;;;;;5040768;28;19979;-68
2021/12/22 01:33:08;;;;;;;;;;;20.80;48.90;;;;;;5036704;28;20271;-62
2021/12/22 01:35:34;;;;;;;;;;;20.80;49.00;;;;;;5037061;28;19921;-63
2021/12/22 01:38:00;;;;;;;;;;;20.70;48.90;;;;;;5041132;28;19995;-62
2021/12/22 01:40:25;;;;;;;;;;;20.70;48.90;;;;;;5039410;28;19917;-68
2021/12/22 01:42:51;;;;;;;;;;;20.70;48.90;;;;;;5042488;28;19908;-63
2021/12/22 01:51:07;;;;;;;;;;;20.70;49.00;;;;;;5039471;28;19919;-66
2021/12/22 01:53:40;;;;;;;;;;;20.70;49.00;;;;;;5038767;28;19971;-67
2021/12/22 01:56:17;;;;;;;;;;;20.60;49.00;;;;;;5040643;28;19919;-62
2021/12/22 01:58:44;;;;;;;;;;;20.60;48.90;;;;;;5042574;28;19966;-64
2021/12/22 02:01:10;;;;;;;;;;;20.60;49.00;;;;;;5036790;28;19980;-64
2021/12/22 02:03:39;;;;;;;;;;;20.60;49.00;;;;;;5036492;28;20031;-67
2021/12/22 02:06:05;;;;;;;;;;;20.60;49.00;;;;;;5040022;28;19916;-65
2021/12/22 02:08:32;;;;;;;;;;;20.60;49.00;;;;;;5041729;28;19917;-67
2021/12/22 02:10:57;;;;;;;;;;;20.60;49.00;;;;;;5044624;28;19995;-66
2021/12/22 02:13:29;;;;;;;;;;;20.60;49.00;;;;;;5042195;28;20000;-63
2021/12/22 02:15:54;;;;;;;;;;;20.60;49.00;;;;;;5046079;28;19917;-65
2021/12/22 02:18:21;;;;;;;;;;;20.50;49.00;;;;;;5046625;28;19905;-63
2021/12/22 02:20:48;;;;;;;;;;;20.50;49.00;;;;;;5044848;28;19924;-66
2021/12/22 02:23:13;;;;;;;;;;;20.50;49.00;;;;;;5042942;28;19905;-64
2021/12/22 02:25:49;;;;;;;;;;;20.50;49.10;;;;;;5047291;28;19950;-64
2021/12/22 02:28:20;;;;;;;;;;;20.50;49.00;;;;;;5039919;28;19954;-68
2021/12/22 02:30:46;;;;;;;;;;;20.50;49.10;;;;;;5039620;28;19947;-63
2021/12/22 02:33:32;;;;;;;;;;;20.50;49.10;;;;;;5044938;28;19947;-64
2021/12/22 02:38:30;;;;;;;;;;;20.50;49.10;;;;;;5039915;28;19951;-62
2021/12/22 02:40:55;;;;;;;;;;;20.40;49.10;;;;;;5048962;28;20550;-64
2021/12/22 02:43:23;;;;;;;;;;;20.40;49.00;;;;;;5045687;28;19911;-64
2021/12/22 02:45:49;;;;;;;;;;;20.40;49.10;;;;;;5044862;28;19917;-70
2021/12/22 02:48:15;;;;;;;;;;;20.40;49.10;;;;;;5045118;28;19935;-68
2021/12/22 02:50:41;;;;;;;;;;;20.40;49.10;;;;;;5044666;28;19946;-63
2021/12/22 02:53:13;;;;;;;;;;;20.40;49.10;;;;;;5046439;28;19924;-63
2021/12/22 02:55:49;;;;;;;;;;;20.40;49.10;;;;;;5046029;28;20059;-63
2021/12/22 02:58:27;;;;;;;;;;;20.40;49.10;;;;;;5046089;28;19959;-64
2021/12/22 03:01:10;;;;;;;;;;;20.40;49.10;;;;;;5038246;28;20293;-63
2021/12/22 03:03:55;;;;;;;;;;;20.40;49.20;;;;;;5047015;28;20625;-65
2021/12/22 03:06:46;;;;;;;;;;;20.40;49.20;;;;;;5044017;28;19920;-65
2021/12/22 03:09:17;;;;;;;;;;;20.40;49.20;;;;;;5043550;28;19912;-65
2021/12/22 03:11:43;;;;;;;;;;;20.40;49.20;;;;;;5044940;28;20427;-68
2021/12/22 03:14:09;;;;;;;;;;;20.40;49.20;;;;;;5048462;28;19908;-65
2021/12/22 03:16:35;;;;;;;;;;;20.30;49.20;;;;;;5047854;28;20294;-62
2021/12/22 03:19:00;;;;;;;;;;;20.30;49.20;;;;;;5049339;28;19935;-64
2021/12/22 03:21:26;;;;;;;;;;;20.30;49.20;;;;;;5043425;28;20704;-64
2021/12/22 03:23:53;;;;;;;;;;;20.30;49.20;;;;;;5040797;28;19939;-63
2021/12/22 03:26:19;;;;;;;;;;;20.30;49.30;;;;;;5042310;28;20357;-65
2021/12/22 03:28:45;;;;;;;;;;;20.30;49.30;;;;;;5047940;28;19916;-68
2021/12/22 03:31:11;;;;;;;;;;;20.30;49.30;;;;;;5043315;28;20058;-64
2021/12/22 03:33:37;;;;;;;;;;;20.30;49.30;;;;;;5042878;28;19966;-63
2021/12/22 03:36:02;;;;;;;;;;;20.30;49.30;;;;;;5041809;28;19919;-64
2021/12/22 03:38:30;;;;;;;;;;;20.30;49.30;;;;;;5046401;28;20272;-64
2021/12/22 03:40:56;;;;;;;;;;;20.30;49.30;;;;;;5040940;28;19917;-63
2021/12/22 03:43:21;;;;;;;;;;;20.20;49.30;;;;;;5045098;28;19908;-63
2021/12/22 03:45:47;;;;;;;;;;;20.20;49.30;;;;;;5045338;28;19926;-68
2021/12/22 03:48:16;;;;;;;;;;;20.20;49.40;;;;;;5044744;28;19915;-62
2021/12/22 03:50:41;;;;;;;;;;;20.20;49.30;;;;;;5039728;28;19911;-67
2021/12/22 03:53:07;;;;;;;;;;;20.20;49.30;;;;;;5042051;28;19917;-64
2021/12/22 03:55:32;;;;;;;;;;;20.20;49.30;;;;;;5046092;28;19928;-64
2021/12/22 03:57:58;;;;;;;;;;;20.20;49.30;;;;;;5044803;28;19924;-64
2021/12/22 04:00:23;;;;;;;;;;;20.20;49.30;;;;;;5040595;28;19920;-63
2021/12/22 04:02:49;;;;;;;;;;;20.20;49.30;;;;;;5045714;28;19912;-63
2021/12/22 04:05:16;;;;;;;;;;;20.20;49.40;;;;;;5042378;28;19970;-67
2021/12/22 04:07:42;;;;;;;;;;;20.20;49.30;;;;;;5043956;28;19920;-63
2021/12/22 04:10:19;;;;;;;;;;;20.20;49.40;;;;;;5038667;28;19909;-68
2021/12/22 04:12:45;;;;;;;;;;;20.20;49.40;;;;;;5042324;28;19924;-67
2021/12/22 04:15:11;;;;;;;;;;;20.20;49.40;;;;;;5043074;28;20008;-62
2021/12/22 04:17:36;;;;;;;;;;;20.20;49.40;;;;;;5046289;28;20015;-61
2021/12/22 04:20:02;;;;;;;;;;;20.20;49.40;;;;;;5046788;28;19922;-63
2021/12/22 04:22:28;;;;;;;;;;;20.20;49.40;;;;;;5042329;28;19942;-64
2021/12/22 04:24:53;;;;;;;;;;;20.20;49.40;;;;;;5040011;28;19909;-65
2021/12/22 04:27:18;;;;;;;;;;;20.10;49.40;;;;;;5042564;28;19912;-63
2021/12/22 04:29:44;;;;;;;;;;;20.20;49.50;;;;;;5043977;28;19912;-63
2021/12/22 04:32:14;;;;;;;;;;;20.10;49.40;;;;;;5041089;28;20396;-64
2021/12/22 04:34:40;;;;;;;;;;;20.20;49.50;;;;;;5044518;28;19936;-64
2021/12/22 04:37:05;;;;;;;;;;;20.10;49.50;;;;;;5037930;28;19916;-64
2021/12/22 04:39:32;;;;;;;;;;;20.10;49.50;;;;;;5041778;28;19947;-64
2021/12/22 04:41:58;;;;;;;;;;;20.10;49.50;;;;;;5041315;28;19915;-66
2021/12/22 04:44:24;;;;;;;;;;;20.10;49.50;;;;;;5042626;28;19917;-67
2021/12/22 04:46:49;;;;;;;;;;;20.10;49.50;;;;;;5042418;28;19924;-68
2021/12/22 04:49:15;;;;;;;;;;;20.10;49.60;;;;;;5046062;28;19912;-63
2021/12/22 04:51:48;;;;;;;;;;;20.10;49.60;;;;;;5037990;28;19909;-67
2021/12/22 04:54:30;;;;;;;;;;;20.10;49.70;;;;;;5039246;28;19909;-62
2021/12/22 04:56:55;;;;;;;;;;;20.10;49.70;;;;;;5040349;28;19920;-63
2021/12/22 04:59:21;;;;;;;;;;;20.00;49.70;;;;;;5041509;28;19913;-67
2021/12/22 05:01:47;;;;;;;;;;;20.00;49.80;;;;;;5034254;28;19960;-66
2021/12/22 05:04:12;;;;;;;;;;;20.00;49.80;;;;;;5036296;28;20020;-66
2021/12/22 05:06:38;;;;;;;;;;;20.00;49.80;;;;;;5041218;28;19919;-64
2021/12/22 05:09:04;;;;;;;;;;;20.00;49.80;;;;;;5040800;28;20027;-63
2021/12/22 05:11:30;;;;;;;;;;;20.00;49.80;;;;;;5044716;28;20379;-62
2021/12/22 05:13:56;;;;;;;;;;;20.00;49.80;;;;;;5040819;28;19905;-67
2021/12/22 05:16:21;;;;;;;;;;;20.10;49.80;;;;;;5039402;28;19952;-62
2021/12/22 05:19:11;;;;;;;;;;;20.00;49.80;;;;;;5044342;28;20384;-67
2021/12/22 05:21:37;;;;;;;;;;;20.00;49.80;;;;;;5041361;28;20002;-67
2021/12/22 05:24:03;;;;;;;;;;;20.00;49.80;;;;;;5041449;28;20010;-63
2021/12/22 05:26:29;;;;;;;;;;;20.00;49.80;;;;;;5046907;28;19919;-66
2021/12/22 05:28:55;;;;;;;;;;;20.00;49.90;;;;;;5041698;28;19992;-63
2021/12/22 05:31:22;;;;;;;;;;;20.00;49.80;;;;;;5043851;28;19962;-62
2021/12/22 05:33:47;;;;;;;;;;;20.00;49.90;;;;;;5039888;28;20339;-67
2021/12/22 05:36:13;;;;;;;;;;;20.00;49.90;;;;;;5037150;28;20044;-63
2021/12/22 05:38:38;;;;;;;;;;;20.00;49.90;;;;;;5042035;28;19992;-63
2021/12/22 05:41:04;;;;;;;;;;;20.00;50.00;;;;;;5042103;28;20430;-64
2021/12/22 05:43:29;;;;;;;;;;;20.00;50.00;;;;;;5038167;28;19917;-63
2021/12/22 05:45:55;;;;;;;;;;;20.00;50.00;;;;;;5044407;28;20296;-67
2021/12/22 05:48:21;;;;;;;;;;;20.00;50.00;;;;;;5042057;28;20067;-63
2021/12/22 05:50:50;;;;;;;;;;;20.00;50.10;;;;;;5047218;28;19919;-63
2021/12/22 05:53:16;;;;;;;;;;;20.00;50.10;;;;;;5047091;28;19936;-62
2021/12/22 05:55:41;;;;;;;;;;;20.00;50.10;;;;;;5050906;28;19909;-62
2021/12/22 05:58:07;;;;;;;;;;;20.00;50.10;;;;;;5047836;28;19917;-64
2021/12/22 06:00:33;;;;;;;;;;;19.90;50.10;;;;;;5045344;28;19916;-63
2021/12/22 06:02:58;;;;;;;;;;;19.90;50.10;;;;;;5048196;28;19920;-63
2021/12/22 06:05:24;;;;;;;;;;;19.90;50.20;;;;;;5043211;28;20303;-63
2021/12/22 06:07:49;;;;;;;;;;;19.90;50.20;;;;;;5043101;28;19921;-66
2021/12/22 06:10:15;;;;;;;;;;;19.90;50.20;;;;;;5049813;28;19909;-63
2021/12/22 06:12:40;;;;;;;;;;;19.90;50.20;;;;;;5044069;28;19913;-63
2021/12/22 06:15:06;;;;;;;;;;;19.90;50.20;;;;;;5047373;28;20612;-64
2021/12/22 06:17:31;;;;;;;;;;;19.90;50.30;;;;;;5045628;28;19970;-67
2021/12/22 06:19:57;;;;;;;;;;;19.90;50.30;;;;;;5051783;28;19916;-66
2021/12/22 06:22:23;;;;;;;;;;;19.90;50.30;;;;;;5048288;28;19982;-67
2021/12/22 06:24:48;;;;;;;;;;;19.90;50.30;;;;;;5052192;28;19954;-67
2021/12/22 06:27:14;;;;;;;;;;;19.90;50.40;;;;;;5049305;28;19913;-65
2021/12/22 06:29:40;;;;;;;;;;;19.90;50.40;;;;;;5049006;28;19962;-65
2021/12/22 06:32:05;;;;;;;;;;;19.90;50.40;;;;;;5048407;28;20466;-64
2021/12/22 06:34:31;;;;;;;;;;;19.90;50.50;;;;;;5045722;28;19921;-65
2021/12/22 06:36:56;;;;;;;;;;;19.90;50.50;;;;;;5043548;28;20012;-68
2021/12/22 06:39:22;;;;;;;;;;;19.90;50.50;;;;;;5041263;28;19917;-67
2021/12/22 06:41:48;;;;;;;;;;;19.90;50.50;;;;;;5042106;28;19909;-62
2021/12/22 06:44:14;;;;;;;;;;;19.80;50.80;;;;;;5051475;28;19995;-64
2021/12/22 06:46:41;;;;;;;;;;;19.90;51.70;;;;;;5059537;28;19916;-63
2021/12/22 06:49:07;;;;;;;;;;;20.10;52.10;;;;;;5059328;28;19974;-62
2021/12/22 06:51:33;;;;;;;;;;;20.40;51.80;;;;;;5057433;28;19917;-63
2021/12/22 06:53:58;;;;;;;;;;;20.50;51.30;;;;;;5058175;28;19936;-63
2021/12/22 06:56:24;;;;;;;;;;;20.70;51.30;;;;;;5061682;28;19919;-64
2021/12/22 06:58:49;;;;;;;;;;;20.90;51.50;;;;;;5057519;28;20346;-62
2021/12/22 07:01:18;;;;;;;;;;;21.00;51.40;;;;;;5043675;28;20015;-63
2021/12/22 07:03:45;;;;;;;;;;;21.20;51.10;;;;;;5047757;28;20050;-66
2021/12/22 07:06:10;;;;;;;;;;;21.40;51.00;;;;;;5057701;28;19913;-66
2021/12/22 07:08:36;;;;;;;;;;;21.60;50.90;;;;;;5056373;28;19908;-63
2021/12/22 07:11:01;;;;;;;;;;;21.70;50.50;;;;;;5048084;28;19912;-66
2021/12/22 07:13:27;;;;;;;;;;;21.90;50.50;;;;;;5047315;28;19917;-66
2021/12/22 07:15:52;;;;;;;;;;;21.80;50.30;;;;;;5046463;28;20361;-62
2021/12/22 07:18:18;;;;;;;;;;;21.80;50.50;;;;;;5054759;28;19917;-61
2021/12/22 07:20:43;;;;;;;;;;;21.70;50.60;;;;;;5044593;28;19933;-62
2021/12/22 07:23:09;;;;;;;;;;;21.60;50.80;;;;;;5045379;28;19962;-63
2021/12/22 07:25:34;;;;;;;;;;;21.60;50.50;;;;;;5046393;28;20427;-63
2021/12/22 07:28:00;;;;;;;;;;;21.60;50.20;;;;;;5045181;28;19908;-66
2021/12/22 07:30:29;;;;;;;;;;;21.60;50.30;;;;;;5043072;28;19961;-62
2021/12/22 07:32:54;;;;;;;;;;;21.60;50.60;;;;;;5046885;28;19908;-63
2021/12/22 07:35:33;;;;;;;;;;;21.60;50.70;;;;;;5041901;28;19908;-64
2021/12/22 07:38:17;;;;;;;;;;;21.60;50.80;;;;;;5040629;28;20007;-66
2021/12/22 07:40:43;;;;;;;;;;;21.60;51.00;;;;;;5042614;28;19913;-62
2021/12/22 07:43:08;;;;;;;;;;;21.60;51.00;;;;;;5042512;28;19986;-62
2021/12/22 07:45:34;;;;;;;;;;;21.60;51.00;;;;;;5046425;28;20753;-61
2021/12/22 07:47:59;;;;;;;;;;;21.60;51.10;;;;;;5046918;28;19918;-63
2021/12/22 07:50:25;;;;;;;;;;;21.70;51.20;;;;;;5042575;28;19920;-63
2021/12/22 07:52:50;;;;;;;;;;;21.70;51.20;;;;;;5042453;28;19912;-62
2021/12/22 07:55:16;;;;;;;;;;;21.70;51.50;;;;;;5045614;28;19920;-63
2021/12/22 07:57:41;;;;;;;;;;;21.70;51.40;;;;;;5046618;28;19958;-66
2021/12/22 08:00:07;;;;;;;;;;;21.70;51.50;;;;;;5041468;28;19924;-65
2021/12/22 08:02:33;;;;;;;;;;;21.70;51.70;;;;;;5042899;28;20134;-63
2021/12/22 08:04:58;;;;;;;;;;;21.80;51.50;;;;;;5045376;28;20696;-62
2021/12/22 08:07:24;;;;;;;;;;;21.80;51.70;;;;;;5039530;28;19909;-62
2021/12/22 08:09:49;;;;;;;;;;;21.80;51.80;;;;;;5045232;28;19920;-63
2021/12/22 08:12:15;;;;;;;;;;;21.80;52.60;;;;;;5043825;28;19912;-61
2021/12/22 08:14:40;;;;;;;;;;;21.80;52.10;;;;;;5043783;28;19959;-65
2021/12/22 08:17:07;;;;;;;;;;;21.80;51.20;;;;;;5043612;28;20276;-61
2021/12/22 08:19:33;;;;;;;;;;;21.80;49.90;;;;;;5044338;28;19921;-61
2021/12/22 08:21:58;;;;;;;;;;;21.80;49.10;;;;;;5040293;28;19919;-62
2021/12/22 08:24:24;;;;;;;;;;;21.80;48.60;;;;;;5046720;28;19909;-65
2021/12/22 08:26:50;;;;;;;;;;;21.80;48.40;;;;;;5043262;28;19989;-61
2021/12/22 08:29:16;;;;;;;;;;;21.80;48.70;;;;;;5042349;28;19916;-61
2021/12/22 08:31:41;;;;;;;;;;;21.80;48.30;;;;;;5043973;28;20638;-62
2021/12/22 08:34:09;;;;;;;;;;;21.80;48.20;;;;;;5041339;28;19917;-63
2021/12/22 08:39:20;;;;;;;;;;;21.80;48.20;;;;;;5041863;28;19919;-65
2021/12/22 08:41:47;;;;;;;;;;;21.80;48.30;;;;;;5041554;28;19965;-61
2021/12/22 08:44:14;;;;;;;;;;;21.80;48.10;;;;;;5046470;28;19909;-63
2021/12/22 08:46:42;;;;;;;;;;;21.80;48.10;;;;;;5040396;28;19971;-63
2021/12/22 08:49:08;;;;;;;;;;;21.80;48.10;;;;;;5042918;28;20264;-61
2021/12/22 08:51:33;;;;;;;;;;;21.80;48.10;;;;;;5040048;28;19935;-62
2021/12/22 08:54:00;;;;;;;;;;;21.80;48.00;;;;;;5044478;28;19920;-65
2021/12/22 08:56:26;;;;;;;;;;;21.80;48.10;;;;;;5043684;28;20035;-62
2021/12/22 08:58:52;;;;;;;;;;;21.80;48.00;;;;;;5045549;28;19995;-63
2021/12/22 09:01:17;;;;;;;;;;;21.80;48.00;;;;;;5042418;28;19944;-63
2021/12/22 09:03:43;;;;;;;;;;;21.80;48.00;;;;;;5042800;28;20374;-62
2021/12/22 09:06:08;;;;;;;;;;;21.80;48.00;;;;;;5038235;28;20288;-64
2021/12/22 09:08:34;;;;;;;;;;;21.80;48.00;;;;;;5041387;28;19909;-65
2021/12/22 09:10:59;;;;;;;;;;;21.80;48.10;;;;;;5041147;28;19947;-62
2021/12/22 09:13:25;;;;;;;;;;;21.80;48.00;;;;;;5040752;28;20003;-63
2021/12/22 09:15:50;;;;;;;;;;;21.80;48.10;;;;;;5043087;28;19912;-62
2021/12/22 09:18:17;;;;;;;;;;;21.80;48.10;;;;;;5043986;28;19940;-62
2021/12/22 09:20:43;;;;;;;;;;;21.80;48.70;;;;;;5043655;28;20268;-62
2021/12/22 09:23:08;;;;;;;;;;;21.90;49.00;;;;;;5037115;28;19984;-63
2021/12/22 09:25:34;;;;;;;;;;;22.10;49.20;;;;;;5034041;28;19917;-64
2021/12/22 09:28:00;;;;;;;;;;;22.30;49.20;;;;;;5036194;28;19943;-65
2021/12/22 09:30:26;;;;;;;;;;;22.50;49.20;;;;;;5044050;28;19913;-63
2021/12/22 09:32:52;;;;;;;;;;;22.60;49.30;;;;;;5042263;28;19923;-63
2021/12/22 09:35:17;;;;;;;;;;;22.70;49.30;;;;;;5041764;28;20268;-65
2021/12/22 09:37:43;;;;;;;;;;;22.80;49.10;;;;;;5037485;28;19916;-64
2021/12/22 09:40:09;;;;;;;;;;;22.80;49.20;;;;;;5040110;28;19916;-64
2021/12/22 09:42:34;;;;;;;;;;;22.80;49.30;;;;;;5041344;28;19920;-63
2021/12/22 09:45:01;;;;;;;;;;;22.80;49.50;;;;;;5042962;28;19975;-67
2021/12/22 09:47:31;;;;;;;;;;;22.80;49.70;;;;;;5044109;28;19919;-63
2021/12/22 09:50:11;;;;;;;;;;;22.80;49.70;;;;;;5039460;28;19912;-63
2021/12/22 09:52:37;;;;;;;;;;;22.70;49.60;;;;;;5037975;28;20622;-65
2021/12/22 09:55:03;;;;;;;;;;;22.70;49.70;;;;;;5040972;28;19919;-67
2021/12/22 09:57:29;;;;;;;;;;;22.80;49.80;;;;;;5044018;28;20455;-64
2021/12/22 09:59:56;;;;;;;;;;;22.80;49.90;;;;;;5037500;28;19912;-63
2021/12/22 10:02:29;;;;;;;;;;;22.80;50.00;;;;;;5043127;28;20394;-64
2021/12/22 10:04:55;;;;;;;;;;;22.80;50.10;;;;;;5043326;28;20316;-68
2021/12/22 10:07:26;;;;;;;;;;;22.80;49.20;;;;;;5040911;28;19936;-64
2021/12/22 10:09:53;;;;;;;;;;;22.70;47.80;;;;;;5039818;28;20426;-62
2021/12/22 10:12:23;;;;;;;;;;;22.70;47.00;;;;;;5036850;28;19917;-65
2021/12/22 10:14:51;;;;;;;;;;;22.60;46.90;;;;;;5040359;28;19913;-68
2021/12/22 10:17:47;;;;;;;;;;;22.60;46.90;;;;;;5045408;28;19992;-68
2021/12/22 10:20:17;;;;;;;;;;;22.60;47.00;;;;;;5027694;28;20035;-65
2021/12/22 10:22:47;;;;;;;;;;;22.50;46.60;;;;;;5041441;28;19909;-63
2021/12/22 10:25:15;;;;;;;;;;;22.50;46.60;;;;;;5040891;28;19917;-65
2021/12/22 10:27:43;;;;;;;;;;;22.50;46.60;;;;;;5042484;28;19947;-67
2021/12/22 10:30:27;;;;;;;;;;;22.50;46.60;;;;;;5040790;28;19912;-65
2021/12/22 10:33:03;;;;;;;;;;;22.50;46.70;;;;;;5039879;28;19919;-64
2021/12/22 10:35:32;;;;;;;;;;;22.40;46.80;;;;;;5036182;28;19917;-65
2021/12/22 10:37:58;;;;;;;;;;;22.40;46.80;;;;;;5039631;28;20719;-68
2021/12/22 10:40:25;;;;;;;;;;;22.40;46.80;;;;;;5045440;28;19917;-64
2021/12/22 10:42:51;;;;;;;;;;;22.40;46.90;;;;;;5046711;28;19913;-64
2021/12/22 10:45:17;;;;;;;;;;;22.40;46.90;;;;;;5043836;28;20007;-63
2021/12/22 10:50:31;;;;;;;;;;;22.30;47.00;;;;;;5043014;28;19920;-66
2021/12/22 10:52:57;;;;;;;;;;;22.30;46.80;;;;;;5044352;28;20265;-67
2021/12/22 10:55:23;;;;;;;;;;;22.30;46.80;;;;;;5045038;28;19913;-65
2021/12/22 10:57:48;;;;;;;;;;;22.30;46.90;;;;;;5044356;28;20652;-64
2021/12/22 11:00:14;;;;;;;;;;;22.20;46.90;;;;;;5045001;28;19965;-65
2021/12/22 11:02:44;;;;;;;;;;;22.30;47.00;;;;;;5042569;28;20003;-65
2021/12/22 11:05:18;;;;;;;;;;;22.30;47.00;;;;;;5041286;28;20337;-65
2021/12/22 11:07:43;;;;;;;;;;;22.20;47.00;;;;;;5043398;28;19997;-66
2021/12/22 11:10:22;;;;;;;;;;;22.20;47.20;;;;;;5046371;28;19956;-66
2021/12/22 11:12:58;;;;;;;;;;;22.20;47.20;;;;;;5045543;28;20018;-64
2021/12/22 11:15:25;;;;;;;;;;;22.20;47.20;;;;;;5042812;28;19916;-67
2021/12/22 11:17:50;;;;;;;;;;;22.20;47.30;;;;;;5043191;28;19918;-64
2021/12/22 11:20:16;;;;;;;;;;;22.20;47.30;;;;;;5044328;28;20512;-64
2021/12/22 11:22:57;;;;;;;;;;;22.20;47.40;;;;;;5044360;28;19916;-64
2021/12/22 11:25:23;;;;;;;;;;;22.20;47.40;;;;;;5043224;28;19917;-64
2021/12/22 11:27:49;;;;;;;;;;;22.20;47.40;;;;;;5045607;28;20356;-64
2021/12/22 11:30:15;;;;;;;;;;;22.20;47.40;;;;;;5044557;28;19946;-66
2021/12/22 11:32:41;;;;;;;;;;;22.20;47.50;;;;;;5043969;28;20003;-64
2021/12/22 11:35:08;;;;;;;;;;;22.20;47.50;;;;;;5041091;28;19919;-65
2021/12/22 11:37:34;;;;;;;;;;;22.20;47.50;;;;;;5039193;28;19966;-64
2021/12/22 11:40:00;;;;;;;;;;;22.20;47.60;;;;;;5039041;28;19920;-64
2021/12/22 11:42:31;;;;;;;;;;;22.20;47.60;;;;;;5037724;28;19974;-63
2021/12/22 11:45:01;;;;;;;;;;;22.20;47.60;;;;;;5038177;28;19967;-65
2021/12/22 11:47:27;;;;;;;;;;;22.20;47.60;;;;;;5033218;28;19920;-65
2021/12/22 11:49:55;;;;;;;;;;;22.20;47.60;;;;;;5044162;28;20058;-64
2021/12/22 11:52:32;;;;;;;;;;;22.20;47.60;;;;;;5037450;28;19952;-66
2021/12/22 11:55:08;;;;;;;;;;;22.20;47.60;;;;;;5041178;28;19999;-64
2021/12/22 11:57:34;;;;;;;;;;;22.20;47.60;;;;;;5043376;28;19920;-65
2021/12/22 12:00:18;;;;;;;;;;;22.20;47.60;;;;;;5041306;28;19917;-65
2021/12/22 12:02:44;;;;;;;;;;;22.20;47.70;;;;;;5040762;28;20003;-65
2021/12/22 12:05:15;;;;;;;;;;;22.20;47.70;;;;;;5039977;28;20054;-65
2021/12/22 12:07:50;;;;;;;;;;;22.20;47.70;;;;;;5037210;28;19919;-67
2021/12/22 12:10:40;;;;;;;;;;;22.20;47.70;;;;;;5039318;28;19959;-68
2021/12/22 12:13:22;;;;;;;;;;;22.10;47.70;;;;;;5036481;28;19936;-65
2021/12/22 12:22:25;;;;;;;;;;;22.10;47.80;;;;;;5026991;28;19998;-65
2021/12/22 12:24:54;;;;;;;;;;;22.20;47.90;;;;;;5049274;28;19913;-65
2021/12/22 12:27:37;;;;;;;;;;;22.10;47.80;;;;;;5054732;28;19912;-68
2021/12/22 12:30:06;;;;;;;;;;;22.10;48.00;;;;;;5053197;28;19916;-65
2021/12/22 12:32:53;;;;;;;;;;;22.10;48.00;;;;;;5054201;28;19913;-65
2021/12/22 12:35:28;;;;;;;;;;;22.10;48.00;;;;;;5032391;28;20007;-65
2021/12/22 12:38:00;;;;;;;;;;;22.10;48.00;;;;;;5052921;28;19909;-66
2021/12/22 12:40:44;;;;;;;;;;;22.10;48.00;;;;;;5052660;28;19959;-65
2021/12/22 12:43:09;;;;;;;;;;;22.10;48.00;;;;;;5050384;28;20287;-65
2021/12/22 12:45:48;;;;;;;;;;;22.10;48.00;;;;;;5043448;28;19969;-64
2021/12/22 12:48:27;;;;;;;;;;;22.10;48.10;;;;;;5045271;28;19919;-66
2021/12/22 12:51:12;;;;;;;;;;;22.10;48.10;;;;;;5040038;28;19915;-64
2021/12/22 12:53:42;;;;;;;;;;;22.10;48.00;;;;;;5044334;28;19917;-66
2021/12/22 12:56:08;;;;;;;;;;;22.10;47.90;;;;;;5039834;28;19931;-67
2021/12/22 12:58:34;;;;;;;;;;;22.10;48.00;;;;;;5044752;28;19954;-66
2021/12/22 13:00:59;;;;;;;;;;;22.10;48.00;;;;;;5039476;28;19920;-65
2021/12/22 13:03:25;;;;;;;;;;;22.10;47.90;;;;;;5038661;28;19974;-65
2021/12/22 13:05:50;;;;;;;;;;;22.10;47.80;;;;;;5039067;28;19920;-67
2021/12/22 13:08:16;;;;;;;;;;;22.10;47.70;;;;;;5034699;28;19909;-65
2021/12/22 13:10:48;;;;;;;;;;;22.10;47.80;;;;;;5042332;28;19913;-64
2021/12/22 13:13:18;;;;;;;;;;;22.10;47.80;;;;;;5036850;28;19919;-66
2021/12/22 13:15:49;;;;;;;;;;;22.10;48.00;;;;;;5036172;28;20065;-64
2021/12/22 13:18:16;;;;;;;;;;;22.10;48.20;;;;;;5032676;28;20249;-64
2021/12/22 13:20:42;;;;;;;;;;;22.10;48.30;;;;;;5034903;28;20015;-65
2021/12/22 13:23:12;;;;;;;;;;;22.10;48.40;;;;;;5038120;28;19997;-65
2021/12/22 13:25:38;;;;;;;;;;;22.20;48.50;;;;;;5037312;28;19920;-65
2021/12/22 13:28:18;;;;;;;;;;;22.20;48.80;;;;;;5037984;28;19995;-64
2021/12/22 13:30:45;;;;;;;;;;;22.20;48.80;;;;;;5037823;28;20034;-64
2021/12/22 13:33:12;;;;;;;;;;;22.20;49.00;;;;;;5036264;28;19912;-64
2021/12/22 13:35:37;;;;;;;;;;;22.30;49.10;;;;;;5038234;28;19916;-64
2021/12/22 13:38:05;;;;;;;;;;;22.30;49.30;;;;;;5039106;28;19974;-65
2021/12/22 13:40:31;;;;;;;;;;;22.30;49.50;;;;;;5042056;28;20595;-65
2021/12/22 13:42:57;;;;;;;;;;;22.40;50.10;;;;;;5041906;28;20372;-64
2021/12/22 13:45:22;;;;;;;;;;;22.40;50.00;;;;;;5037833;28;19916;-67
2021/12/22 13:47:48;;;;;;;;;;;22.40;49.90;;;;;;5040012;28;20416;-65
2021/12/22 13:50:13;;;;;;;;;;;22.40;50.00;;;;;;5039809;28;19915;-64
2021/12/22 13:52:39;;;;;;;;;;;22.50;49.90;;;;;;5040489;28;20327;-64
2021/12/22 13:55:05;;;;;;;;;;;22.50;49.80;;;;;;5038198;28;19908;-67
2021/12/22 13:57:30;;;;;;;;;;;22.50;49.80;;;;;;5040290;28;19913;-67
2021/12/22 13:59:55;;;;;;;;;;;22.50;50.20;;;;;;5041551;28;20039;-65
2021/12/22 14:02:31;;;;;;;;;;;22.50;50.00;;;;;;5037008;28;19940;-66
2021/12/22 14:05:11;;;;;;;;;;;22.50;50.00;;;;;;5037610;28;20690;-65
2021/12/22 14:07:36;;;;;;;;;;;22.50;50.20;;;;;;5033959;28;19917;-67
2021/12/22 14:10:08;;;;;;;;;;;22.50;50.20;;;;;;5043088;28;19936;-64
2021/12/22 14:12:34;;;;;;;;;;;22.60;50.20;;;;;;5047839;28;20379;-64
2021/12/22 14:14:59;;;;;;;;;;;22.60;50.30;;;;;;5039948;28;19944;-65
2021/12/22 14:17:29;;;;;;;;;;;22.60;49.60;;;;;;5042372;28;19912;-63
2021/12/22 14:19:56;;;;;;;;;;;22.60;48.40;;;;;;5036555;28;20035;-65
2021/12/22 14:22:48;;;;;;;;;;;22.60;47.90;;;;;;5038533;28;20631;-65
2021/12/22 14:25:19;;;;;;;;;;;22.60;47.80;;;;;;5041645;28;19920;-64
2021/12/22 14:27:46;;;;;;;;;;;22.50;47.40;;;;;;5042645;28;20601;-67
2021/12/22 14:30:21;;;;;;;;;;;22.50;47.30;;;;;;5038448;28;20646;-65
2021/12/22 14:33:12;;;;;;;;;;;22.50;47.30;;;;;;5043384;28;19913;-65
2021/12/22 14:35:39;;;;;;;;;;;22.50;47.30;;;;;;5036240;28;19916;-65
2021/12/22 14:38:06;;;;;;;;;;;22.40;47.30;;;;;;5040743;28;19921;-66
2021/12/22 14:40:33;;;;;;;;;;;22.40;47.30;;;;;;5043831;28;19920;-65
2021/12/22 14:43:01;;;;;;;;;;;22.40;47.40;;;;;;5045123;28;20428;-68